Time;durP1;ratioP1;P1;durP2;ratioP2;P2;SDS_P1;SDS_P2;PMS_P1;PMS_P2;Temp;Humidity;BMP_temperature;BMP_pressure;BME280_temperature;BME280_humidity;BME280_pressure;Samples;Min_cycle;Max_cycle;Signal;HPM_P1;HPM_P2
2021/07/02 04:53:00;;;;;;;15.58;10.38;;;;;;;22.53;83.46;98005.64;1707502;79;21218;-48
2021/07/02 04:55:27;;;;;;;18.85;10.03;;;;;;;22.46;84.15;98005.29;1735585;81;21011;-52
2021/07/02 04:57:55;;;;;;;15.08;9.58;;;;;;;22.46;84.77;98010.66;1750423;80;21017;-51
2021/07/02 05:00:27;;;;;;;22.37;10.20;;;;;;;22.50;84.76;98004.14;1743684;80;21082;-49
2021/07/02 05:02:54;;;;;;;16.55;9.83;;;;;;;22.46;85.26;98009.31;1724948;82;21087;-46
2021/07/02 05:05:23;;;;;;;22.58;9.93;;;;;;;22.44;85.74;98007.49;1694486;83;21110;-58
2021/07/02 05:07:52;;;;;;;17.80;9.35;;;;;;;22.51;85.24;98017.25;1660606;83;22313;-43
2021/07/02 05:10:23;;;;;;;16.42;10.08;;;;;;;22.61;84.66;98017.56;1688913;83;21047;-43
2021/07/02 05:12:50;;;;;;;17.67;9.20;;;;;;;22.74;83.86;98009.18;1707432;81;21091;-41
2021/07/02 05:15:19;;;;;;;16.37;9.75;;;;;;;22.86;82.32;98012.09;1719916;81;21175;-53
2021/07/02 05:17:48;;;;;;;18.48;9.10;;;;;;;22.97;81.40;98018.02;1713018;82;21040;-46
2021/07/02 05:20:17;;;;;;;16.85;9.20;;;;;;;23.06;80.03;98016.18;1728639;81;21112;-39
2021/07/02 05:22:46;;;;;;;15.23;9.03;;;;;;;23.16;79.53;98012.41;1720917;81;21566;-41
2021/07/02 05:25:13;;;;;;;17.23;8.80;;;;;;;23.40;78.49;98006.11;1712775;82;21004;-46
2021/07/02 05:27:42;;;;;;;15.20;9.28;;;;;;;23.67;76.89;98011.02;1696521;83;21065;-46
2021/07/02 05:30:13;;;;;;;18.55;8.80;;;;;;;23.83;75.33;98013.50;1724419;82;21549;-48
2021/07/02 05:32:41;;;;;;;16.00;8.70;;;;;;;24.09;74.46;98021.06;1708655;82;21039;-49
2021/07/02 05:35:10;;;;;;;16.67;9.55;;;;;;;24.36;72.67;98013.22;1719369;82;21140;-49
2021/07/02 05:37:43;;;;;;;17.85;9.55;;;;;;;24.42;72.37;98016.55;1746227;81;21590;-52
2021/07/02 05:40:13;;;;;;;20.43;8.98;;;;;;;24.36;72.74;98020.52;1716181;81;21016;-52
2021/07/02 05:42:41;;;;;;;16.80;9.08;;;;;;;24.31;72.96;98019.30;1716846;83;21038;-45
2021/07/02 05:45:10;;;;;;;16.73;9.43;;;;;;;24.39;72.69;98012.37;1720860;82;21055;-51
2021/07/02 05:47:59;;;;;;;21.90;8.50;;;;;;;24.73;71.40;98014.22;1713138;82;21501;-56
2021/07/02 05:50:17;;;;;;;14.90;8.40;;;;;;;25.45;68.61;98007.14;1713550;82;21534;-47
2021/07/02 05:52:46;;;;;;;22.48;9.30;;;;;;;26.36;65.15;98004.23;1717669;81;21059;-51
2021/07/02 05:55:14;;;;;;;25.65;8.63;;;;;;;27.10;62.65;98002.56;1731108;81;21023;-56
2021/07/02 05:57:44;;;;;;;16.53;8.07;;;;;;;27.64;60.29;98003.13;1732694;80;21012;-56
2021/07/02 06:00:14;;;;;;;12.78;7.25;;;;;;;27.64;58.54;98005.84;1700743;83;21041;-50
2021/07/02 06:02:43;;;;;;;16.62;8.23;;;;;;;27.30;57.63;97999.52;1695524;81;21618;-50
2021/07/02 06:05:13;;;;;;;17.77;8.13;;;;;;;26.85;59.19;98013.88;1746214;80;21079;-38
2021/07/02 06:07:47;;;;;;;17.52;7.90;;;;;;;26.43;60.81;98000.45;1701456;81;21054;-49
2021/07/02 06:10:16;;;;;;;19.57;8.73;;;;;;;26.10;62.35;98001.20;1746399;81;21084;-47
2021/07/02 06:12:44;;;;;;;16.35;7.97;;;;;;;26.04;62.68;98011.19;1740725;81;21053;-56
2021/07/02 06:15:14;;;;;;;25.87;8.90;;;;;;;26.28;62.27;98003.19;1738741;80;21555;-52
2021/07/02 06:17:41;;;;;;;59.35;11.90;;;;;;;26.74;60.24;98007.55;1733681;82;21039;-48
2021/07/02 06:20:10;;;;;;;51.45;9.85;;;;;;;27.11;58.95;98008.98;1728679;81;21516;-52
2021/07/02 06:22:37;;;;;;;23.35;8.48;;;;;;;27.15;59.13;98011.24;1733627;81;21530;-51
2021/07/02 06:25:08;;;;;;;28.02;8.28;;;;;;;26.99;58.69;98012.99;1718948;80;21516;-53
2021/07/02 06:27:35;;;;;;;21.73;9.05;;;;;;;26.94;59.53;98009.15;1723328;80;21028;-55
2021/07/02 06:30:05;;;;;;;15.68;7.60;;;;;;;27.03;58.92;97995.54;1718881;81;20978;-46
2021/07/02 06:32:35;;;;;;;18.37;7.67;;;;;;;27.11;58.34;97996.02;1719850;81;21066;-53
2021/07/02 06:35:04;;;;;;;17.15;6.87;;;;;;;27.26;58.38;97998.85;1730185;80;21063;-49
2021/07/02 06:37:31;;;;;;;15.32;7.33;;;;;;;27.58;57.77;97990.14;1716743;81;21033;-48
2021/07/02 06:40:01;;;;;;;14.33;7.28;;;;;;;27.92;56.04;97986.16;1743143;80;21113;-49
2021/07/02 06:42:28;;;;;;;13.97;7.93;;;;;;;28.13;54.97;97981.93;1749360;80;21020;-51
2021/07/02 06:44:56;;;;;;;16.10;7.60;;;;;;;28.14;54.47;97979.44;1737877;81;21032;-48
2021/07/02 06:47:27;;;;;;;14.40;6.78;;;;;;;28.08;54.00;97972.13;1757167;81;21066;-48
2021/07/02 06:49:55;;;;;;;16.27;6.83;;;;;;;28.07;53.23;97960.28;1714096;82;21049;-51
2021/07/02 06:52:23;;;;;;;10.32;6.75;;;;;;;27.85;54.40;97959.67;1673972;84;21064;-50
2021/07/02 06:54:52;;;;;;;12.85;7.03;;;;;;;27.82;54.31;97960.37;1704796;81;21064;-58
2021/07/02 06:57:20;;;;;;;9.28;6.58;;;;;;;27.92;54.62;97956.38;1676176;84;21028;-56
2021/07/02 06:59:48;;;;;;;15.00;6.92;;;;;;;28.03;53.40;97960.17;1715149;81;21015;-54
2021/07/02 07:02:16;;;;;;;13.03;7.00;;;;;;;28.09;52.77;97976.41;1698988;83;21076;-56
2021/07/02 07:04:45;;;;;;;12.58;6.28;;;;;;;28.02;53.61;97982.98;1659309;85;21524;-51
2021/07/02 07:07:12;;;;;;;13.48;6.85;;;;;;;28.06;53.53;97983.88;1705892;81;21044;-46
2021/07/02 07:09:40;;;;;;;16.10;6.33;;;;;;;27.61;54.07;97992.18;1687673;82;21051;-55
2021/07/02 07:12:08;;;;;;;13.48;6.55;;;;;;;27.12;55.53;97997.59;1703706;81;21059;-50
2021/07/02 07:14:38;;;;;;;13.83;6.25;;;;;;;26.99;56.49;97997.55;1682977;83;21102;-52
2021/07/02 07:17:10;;;;;;;13.50;6.65;;;;;;;27.13;56.37;97985.67;1692343;81;21569;-50
2021/07/02 07:19:38;;;;;;;10.98;6.50;;;;;;;27.26;56.35;97987.24;1681957;82;21055;-53
2021/07/02 07:22:05;;;;;;;12.15;5.95;;;;;;;27.60;55.82;97986.55;1708707;81;21034;-57
2021/07/02 07:24:33;;;;;;;10.60;5.83;;;;;;;28.04;54.23;97976.10;1709661;81;21537;-53
2021/07/02 07:27:01;;;;;;;10.90;6.45;;;;;;;28.05;53.05;97964.13;1709016;82;21017;-60
2021/07/02 07:29:30;;;;;;;10.35;6.00;;;;;;;27.89;54.08;97961.92;1710227;82;21716;-52
2021/07/02 07:32:01;;;;;;;9.03;5.67;;;;;;;27.97;53.22;97963.69;1728631;81;21356;-45
2021/07/02 07:34:37;;;;;;;11.93;5.85;;;;;;;28.18;53.06;97978.98;1716209;82;21018;-56
2021/07/02 07:37:10;;;;;;;11.75;6.10;;;;;;;28.24;53.25;97977.03;1708331;82;21119;-51
2021/07/02 07:39:36;;;;;;;12.25;5.40;;;;;;;28.24;53.67;97985.73;1725007;81;21088;-58
2021/07/02 07:42:05;;;;;;;11.40;5.95;;;;;;;28.11;53.15;97984.99;1690872;83;21068;-56
2021/07/02 07:44:34;;;;;;;;;;;;;;;27.96;53.11;97996.54;1717174;82;20989;-58
2021/07/02 07:47:03;;;;;;;7.03;5.45;;;;;;;27.99;53.89;97999.36;1721170;82;20117;-64
2021/07/02 07:49:32;;;;;;;12.33;5.75;;;;;;;28.22;52.86;98006.41;1689812;83;21060;-52
2021/07/02 07:52:11;;;;;;;9.15;5.28;;;;;;;28.52;52.53;98004.16;1709430;81;21068;-48
2021/07/02 07:54:29;;;;;;;14.33;5.37;;;;;;;28.67;51.93;98014.01;1702884;82;21498;-50
2021/07/02 07:56:58;;;;;;;8.75;5.42;;;;;;;28.61;51.86;98003.20;1726359;82;21483;-51
2021/07/02 07:59:27;;;;;;;11.60;5.92;;;;;;;28.45;52.65;98007.25;1698383;83;21089;-45
2021/07/02 08:01:55;;;;;;;11.65;5.78;;;;;;;28.18;52.64;98013.63;1700036;82;21110;-48
2021/07/02 08:04:24;;;;;;;11.93;5.60;;;;;;;27.89;53.78;98016.08;1665215;85;21047;-53
2021/07/02 08:06:51;;;;;;;11.95;5.83;;;;;;;27.83;54.21;98003.13;1726655;82;21042;-48
2021/07/02 08:09:22;;;;;;;10.37;5.40;;;;;;;27.90;54.11;98009.53;1703830;81;21588;-55
2021/07/02 08:11:50;;;;;;;14.23;6.08;;;;;;;27.92;54.27;98003.77;1688700;83;21095;-48
2021/07/02 08:14:18;;;;;;;12.58;6.05;;;;;;;27.86;54.00;98001.86;1695291;84;21052;-52
2021/07/02 08:16:47;;;;;;;12.80;6.17;;;;;;;27.61;54.39;98001.66;1691737;84;21608;-42
2021/07/02 08:19:15;;;;;;;7.95;4.90;;;;;;;27.40;54.57;98005.83;1698004;83;21118;-46
2021/07/02 08:21:43;;;;;;;9.75;5.42;;;;;;;27.33;55.02;97998.84;1745262;80;21052;-52
2021/07/02 08:24:10;;;;;;;10.15;5.55;;;;;;;27.47;54.50;98004.70;1715154;81;21210;-46
2021/07/02 08:26:38;;;;;;;12.05;5.50;;;;;;;27.59;53.94;98003.92;1722259;81;21058;-42
2021/07/02 08:31:52;;;;;;;15.43;5.47;;;;;;;27.64;53.95;98002.31;1716525;82;21076;-58
2021/07/02 08:34:19;;;;;;;15.08;6.05;;;;;;;27.50;54.17;98009.45;1692624;84;21128;-50
2021/07/02 08:36:48;;;;;;;15.13;5.80;;;;;;;27.30;55.17;98008.98;1716550;83;21560;-46
2021/07/02 08:39:17;;;;;;;9.10;4.95;;;;;;;27.15;54.76;98000.42;1709502;80;21550;-47
2021/07/02 08:41:46;;;;;;;16.35;5.62;;;;;;;27.06;54.78;98015.95;1699670;83;21586;-49
2021/07/02 08:44:14;;;;;;;17.48;6.08;;;;;;;27.07;55.12;98014.86;1680620;83;22173;-50
2021/07/02 08:46:43;;;;;;;12.43;6.35;;;;;;;27.22;55.84;98010.11;1712055;82;21055;-50
2021/07/02 08:49:10;;;;;;;15.55;5.95;;;;;;;27.18;55.25;98011.12;1715702;81;21033;-49
2021/07/02 08:51:38;;;;;;;10.30;6.60;;;;;;;26.75;55.43;98009.68;1730098;81;21118;-47
2021/07/02 08:54:07;;;;;;;13.72;6.20;;;;;;;26.05;57.00;98005.45;1735258;81;21015;-49
2021/07/02 08:56:34;;;;;;;9.28;5.92;;;;;;;25.67;59.04;98013.05;1746788;79;21229;-52
2021/07/02 08:59:02;;;;;;;11.35;5.97;;;;;;;25.57;60.05;98008.58;1723789;80;21151;-48
2021/07/02 09:01:42;;;;;;;17.17;6.08;;;;;;;25.64;59.88;98003.48;1720108;81;21047;-50
2021/07/02 09:04:29;;;;;;;20.75;6.75;;;;;;;25.77;61.29;97997.06;1722853;80;21060;-47
2021/07/02 09:07:11;;;;;;;19.17;6.25;;;;;;;25.90;60.96;98000.06;1712729;81;21028;-52
2021/07/02 09:09:59;;;;;;;14.63;6.25;;;;;;;26.25;61.05;98009.24;1718184;81;21588;-55
2021/07/02 09:12:31;;;;;;;13.88;6.08;;;;;;;26.52;58.13;97999.81;1682453;81;21085;-55
2021/07/02 09:15:07;;;;;;;15.48;5.67;;;;;;;26.48;58.66;98007.00;1733380;82;21026;-49
2021/07/02 09:17:53;;;;;;;9.25;5.45;;;;;;;26.63;57.71;98006.95;1719935;82;21085;-49
2021/07/02 09:20:35;;;;;;;8.05;5.30;;;;;;;26.83;56.32;98003.94;1711426;82;21075;-50
2021/07/02 09:23:09;;;;;;;10.90;5.65;;;;;;;26.98;55.70;97997.33;1695059;83;21076;-50
2021/07/02 09:25:40;;;;;;;9.35;5.80;;;;;;;26.97;55.83;98004.44;1724864;82;21566;-51
2021/07/02 09:28:10;;;;;;;10.10;5.62;;;;;;;26.99;55.39;98008.37;1727683;82;21086;-49
2021/07/02 09:30:44;;;;;;;;;;;;;;;26.61;55.49;97990.26;1730813;81;21531;-52
2021/07/02 09:33:18;;;;;;;7.97;6.17;;;;;;;26.19;57.00;98003.25;1713837;82;20107;-49
2021/07/02 09:35:54;;;;;;;8.63;5.65;;;;;;;26.03;58.59;98002.27;1740418;81;21075;-48
2021/07/02 09:38:21;;;;;;;8.60;5.40;;;;;;;25.98;58.68;98005.19;1752261;81;21613;-54
2021/07/02 09:40:49;;;;;;;8.95;5.67;;;;;;;26.11;57.56;97997.37;1725000;81;21114;-51
2021/07/02 09:43:19;;;;;;;7.05;5.22;;;;;;;26.16;56.61;97997.73;1654671;84;21531;-50
2021/07/02 09:45:55;;;;;;;7.10;5.40;;;;;;;26.20;57.13;98002.13;1697700;83;21562;-54
2021/07/02 09:48:25;;;;;;;8.30;5.40;;;;;;;26.24;57.73;98006.31;1708694;82;21503;-47
2021/07/02 09:50:57;;;;;;;8.58;5.37;;;;;;;26.26;57.98;98005.41;1719364;82;21020;-53
2021/07/02 09:53:29;;;;;;;6.83;4.90;;;;;;;26.35;57.65;98006.14;1714537;82;21248;-57
2021/07/02 09:55:59;;;;;;;8.13;4.50;;;;;;;26.50;56.65;98006.69;1686439;83;21586;-52
2021/07/02 09:58:30;;;;;;;8.73;5.25;;;;;;;26.55;55.52;98008.59;1692831;82;21042;-50
2021/07/02 10:00:59;;;;;;;6.22;4.80;;;;;;;26.68;55.32;98006.17;1713611;82;21134;-55
2021/07/02 10:03:34;;;;;;;7.95;4.67;;;;;;;26.82;55.23;98000.45;1713805;81;21111;-53
2021/07/02 10:06:05;;;;;;;13.45;5.45;;;;;;;26.89;55.02;98000.69;1688730;82;21047;-51
2021/07/02 10:08:40;;;;;;;15.00;5.30;;;;;;;27.09;55.71;97996.36;1718911;81;21501;-49
2021/07/02 10:11:10;;;;;;;11.83;5.30;;;;;;;27.37;54.74;97992.43;1755778;80;20968;-55
2021/07/02 10:13:43;;;;;;;17.60;8.03;;;;;;;27.56;53.86;97998.61;1715969;82;21077;-46
2021/07/02 10:16:13;;;;;;;12.13;5.67;;;;;;;27.58;54.51;97991.50;1721189;83;21047;-46
2021/07/02 10:18:51;;;;;;;10.18;5.72;;;;;;;27.66;54.46;97994.66;1710809;82;21086;-45
2021/07/02 10:21:20;;;;;;;9.03;5.20;;;;;;;27.51;51.88;97990.72;1713895;82;21547;-49
2021/07/02 10:23:54;;;;;;;8.05;5.08;;;;;;;26.69;54.39;97991.53;1718193;81;21043;-47
2021/07/02 10:26:23;;;;;;;9.75;4.90;;;;;;;26.38;56.41;98000.62;1721357;83;21057;-53
2021/07/02 10:28:51;;;;;;;8.78;4.70;;;;;;;26.55;57.82;97991.59;1713439;82;21110;-50
2021/07/02 10:31:21;;;;;;;10.40;4.97;;;;;;;26.95;55.98;97980.44;1715504;81;21488;-50
2021/07/02 10:33:58;;;;;;;5.75;4.60;;;;;;;27.28;54.93;97982.84;1678611;83;21030;-47
2021/07/02 10:36:36;;;;;;;9.35;4.80;;;;;;;27.57;52.86;97992.62;1661913;84;21004;-50
2021/07/02 10:39:28;;;;;;;7.35;4.65;;;;;;;27.65;53.38;97973.57;1646074;84;21063;-55
2021/07/02 10:42:08;;;;;;;7.62;4.62;;;;;;;27.65;52.49;97978.98;1728751;80;21062;-58
2021/07/02 10:45:02;;;;;;;12.63;4.40;;;;;;;27.62;52.68;97974.24;1733842;80;21055;-55
2021/07/02 10:47:30;;;;;;;9.58;4.83;;;;;;;27.60;52.94;97975.72;1713498;81;21040;-54
2021/07/02 10:49:58;;;;;;;12.65;4.62;;;;;;;27.68;52.52;97969.38;1737916;80;21094;-55
2021/07/02 10:52:27;;;;;;;11.85;4.60;;;;;;;27.71;51.43;97970.88;1743008;80;21109;-57
2021/07/02 10:54:56;;;;;;;5.33;4.47;;;;;;;27.64;52.00;97972.00;1720360;81;22713;-53
2021/07/02 10:57:26;;;;;;;9.08;4.37;;;;;;;27.65;51.63;97975.49;1723642;81;21024;-56
2021/07/02 10:59:59;;;;;;;6.37;4.27;;;;;;;27.82;51.53;97977.19;1718171;82;21062;-53
2021/07/02 11:02:26;;;;;;;5.75;4.33;;;;;;;28.05;51.35;97978.24;1714153;81;21017;-53
2021/07/02 11:04:53;;;;;;;9.43;4.78;;;;;;;28.31;50.83;97977.79;1703310;82;21083;-58
2021/07/02 11:07:21;;;;;;;5.97;4.80;;;;;;;28.40;50.45;97977.68;1714363;82;21052;-57
2021/07/02 11:09:53;;;;;;;8.35;4.53;;;;;;;28.47;49.51;97973.80;1695012;81;21095;-51
2021/07/02 11:12:19;;;;;;;9.18;4.62;;;;;;;28.60;49.06;97981.30;1694822;83;20980;-54
2021/07/02 11:18:11;;;;;;;11.05;4.25;;;;;;;28.89;48.23;97988.23;1687315;83;21055;-61
2021/07/02 11:20:39;;;;;;;7.83;4.50;;;;;;;28.82;48.58;97990.20;1700383;84;21545;-57
2021/07/02 11:23:19;;;;;;;6.60;4.20;;;;;;;28.68;49.28;97983.08;1687502;84;21553;-50
2021/07/02 11:25:54;;;;;;;7.28;4.35;;;;;;;28.49;49.45;97987.22;1658884;85;21592;-59
2021/07/02 11:28:36;;;;;;;5.87;4.33;;;;;;;28.15;49.50;97982.36;1677957;84;21142;-57
2021/07/02 11:31:04;;;;;;;8.28;4.58;;;;;;;27.85;51.10;97974.56;1673976;85;21057;-57
2021/07/02 11:33:32;;;;;;;6.62;4.60;;;;;;;27.65;52.10;97973.57;1673348;84;21546;-55
2021/07/02 11:36:06;;;;;;;8.55;4.85;;;;;;;27.61;51.21;97967.25;1670573;85;21493;-48
2021/07/02 11:38:43;;;;;;;10.53;4.95;;;;;;;27.43;51.51;97959.95;1664107;84;21509;-49
2021/07/02 11:41:19;;;;;;;7.08;4.28;;;;;;;27.15;50.53;97964.47;1655112;84;21041;-45
2021/07/02 11:43:47;;;;;;;5.53;4.47;;;;;;;26.78;51.81;97956.84;1689138;84;21064;-49
2021/07/02 11:46:18;;;;;;;8.08;4.80;;;;;;;26.77;53.50;97953.92;1680319;84;21120;-47
2021/07/02 11:48:49;;;;;;;6.10;4.62;;;;;;;26.78;54.84;97952.22;1678569;84;21027;-45
2021/07/02 11:51:29;;;;;;;7.25;4.62;;;;;;;26.60;54.19;97956.25;1681534;84;21092;-51
2021/07/02 11:54:05;;;;;;;9.13;6.25;;;;;;;26.42;54.39;97952.38;1700144;84;21130;-47
2021/07/02 11:56:34;;;;;;;8.38;4.50;;;;;;;26.34;56.00;97942.43;1671066;84;21034;-47
2021/07/02 11:59:07;;;;;;;5.07;4.30;;;;;;;26.39;56.08;97932.77;1674937;84;20980;-44
2021/07/02 12:01:46;;;;;;;5.83;4.22;;;;;;;26.56;54.63;97933.74;1692016;84;21054;-44
2021/07/02 12:04:20;;;;;;;4.47;3.87;;;;;;;26.91;54.37;97930.07;1691218;84;21054;-47
2021/07/02 12:06:48;;;;;;;4.35;3.62;;;;;;;27.30;53.26;97935.94;1683570;84;21026;-44
2021/07/02 12:09:29;;;;;;;6.95;3.80;;;;;;;27.61;52.53;97934.77;1660942;84;21574;-48
2021/07/02 12:11:59;;;;;;;5.33;3.80;;;;;;;27.83;51.72;97929.45;1660563;83;21070;-44
2021/07/02 12:14:34;;;;;;;7.30;3.90;;;;;;;27.99;50.98;97936.28;1707814;83;21588;-44
2021/07/02 12:17:03;;;;;;;4.50;3.90;;;;;;;28.06;50.51;97933.77;1650637;84;21062;-49
2021/07/02 12:19:35;;;;;;;4.70;3.85;;;;;;;28.13;50.40;97939.94;1687100;84;21632;-45
2021/07/02 12:22:06;;;;;;;6.47;4.00;;;;;;;28.16;50.12;97940.59;1674740;84;21124;-45
2021/07/02 12:24:38;;;;;;;6.97;3.80;;;;;;;28.20;49.79;97946.33;1680748;84;21058;-45
2021/07/02 12:27:12;;;;;;;5.67;3.87;;;;;;;28.28;50.25;97945.98;1673964;84;21017;-48
2021/07/02 12:29:37;;;;;;;5.70;3.70;;;;;;;28.41;49.43;97942.66;1655399;86;21073;-49
2021/07/02 12:32:08;;;;;;;6.03;3.60;;;;;;;28.60;48.91;97938.70;1647095;86;21171;-47
2021/07/02 12:34:47;;;;;;;7.50;4.10;;;;;;;28.82;48.68;97936.75;1660495;85;21548;-48
2021/07/02 12:37:20;;;;;;;8.28;3.90;;;;;;;28.96;47.99;97938.25;1634437;87;21038;-45
2021/07/02 12:39:50;;;;;;;8.90;4.00;;;;;;;29.01;47.87;97926.57;1675973;83;21035;-48
2021/07/02 12:42:20;;;;;;;5.05;3.70;;;;;;;29.05;48.20;97926.66;1667156;84;21081;-46
2021/07/02 12:44:51;;;;;;;5.85;3.80;;;;;;;29.07;48.18;97929.23;1654246;85;21525;-51
2021/07/02 12:47:19;;;;;;;8.90;4.12;;;;;;;29.00;47.91;97926.93;1649461;86;21057;-50
2021/07/02 12:50:05;;;;;;;7.33;3.75;;;;;;;28.92;47.92;97927.87;1631514;86;21134;-48
2021/07/02 12:55:18;;;;;;;10.50;4.00;;;;;;;28.66;48.06;97921.04;1670359;84;21125;-44
